createdAt,value
2023-03-17T00:01:23.511Z,10.05
2023-03-17T00:03:50.388Z,7.20
2023-03-17T00:06:24.609Z,7.13
2023-03-17T00:08:51.516Z,4.10
2023-03-17T00:11:18.303Z,4.88
2023-03-17T00:13:46.226Z,4.82
2023-03-17T00:16:17.826Z,4.68
2023-03-17T00:18:45.644Z,8.57
2023-03-17T00:21:19.570Z,6.77
2023-03-17T00:23:50.660Z,6.25
2023-03-17T00:26:18.047Z,7.20
2023-03-17T00:28:45.358Z,5.95
2023-03-17T00:31:24.360Z,10.32
2023-03-17T00:33:54.666Z,8.03
2023-03-17T00:36:30.784Z,8.32
2023-03-17T00:38:58.939Z,7.88
2023-03-17T00:41:27.011Z,6.68
2023-03-17T00:43:54.054Z,6.22
2023-03-17T00:46:28.715Z,7.40
2023-03-17T00:48:57.851Z,8.85
2023-03-17T00:51:24.607Z,5.90
2023-03-17T00:53:51.757Z,7.55
2023-03-17T00:56:21.086Z,6.10
2023-03-17T00:58:48.920Z,5.13
2023-03-17T01:01:16.160Z,4.43
2023-03-17T01:03:43.074Z,8.60
2023-03-17T01:06:12.932Z,5.20
2023-03-17T01:08:41.565Z,7.30
2023-03-17T01:11:19.452Z,7.90
2023-03-17T01:13:47.799Z,7.70
2023-03-17T01:16:15.748Z,5.90
2023-03-17T01:18:43.512Z,4.97
2023-03-17T01:21:10.440Z,6.50
2023-03-17T01:23:37.870Z,7.90
2023-03-17T01:26:05.580Z,5.90
2023-03-17T01:28:32.571Z,6.78
2023-03-17T01:30:59.739Z,5.45
2023-03-17T01:33:26.682Z,5.88
2023-03-17T01:35:53.523Z,5.43
2023-03-17T01:38:20.431Z,5.80
2023-03-17T01:40:50.356Z,4.72
2023-03-17T01:43:18.888Z,6.18
2023-03-17T01:46:22.800Z,5.22
2023-03-17T01:49:12.682Z,5.33
2023-03-17T01:51:58.862Z,4.60
2023-03-17T01:54:37.687Z,4.80
2023-03-17T01:57:23.272Z,8.07
2023-03-17T01:59:55.337Z,5.78
2023-03-17T02:02:28.641Z,7.00
2023-03-17T02:04:55.730Z,6.68
2023-03-17T02:07:23.828Z,7.20
2023-03-17T02:09:52.457Z,5.45
2023-03-17T02:12:22.555Z,7.05
2023-03-17T02:14:49.972Z,4.77
2023-03-17T02:17:16.890Z,6.88
2023-03-17T02:19:43.769Z,4.57
2023-03-17T02:22:11.485Z,8.77
2023-03-17T02:24:43.261Z,4.65
2023-03-17T02:27:18.803Z,4.00
2023-03-17T02:29:46.430Z,5.75
2023-03-17T02:32:18.368Z,5.15
2023-03-17T02:34:46.428Z,5.57
2023-03-17T02:37:13.775Z,5.80
2023-03-17T02:39:40.915Z,5.90
2023-03-17T02:42:08.252Z,5.40
2023-03-17T02:44:35.182Z,4.55
2023-03-17T02:47:03.138Z,4.68
2023-03-17T02:49:31.503Z,6.32
2023-03-17T02:51:58.267Z,4.53
2023-03-17T02:54:25.093Z,4.57
2023-03-17T02:56:51.831Z,4.63
2023-03-17T02:59:18.628Z,4.20
2023-03-17T03:01:48.297Z,5.32
2023-03-17T03:04:15.200Z,5.27
2023-03-17T03:06:42.586Z,4.25
2023-03-17T03:09:11.673Z,5.22
2023-03-17T03:11:39.298Z,6.50
2023-03-17T03:14:06.876Z,4.00
2023-03-17T03:16:33.879Z,9.70
2023-03-17T03:19:01.520Z,5.82
2023-03-17T03:21:28.624Z,5.55
2023-03-17T03:23:55.735Z,5.65
2023-03-17T03:26:22.862Z,4.43
2023-03-17T03:28:50.039Z,4.33
2023-03-17T03:31:17.298Z,4.60
2023-03-17T03:33:45.532Z,7.20
2023-03-17T03:36:13.394Z,5.88
2023-03-17T03:38:41.550Z,7.35
2023-03-17T03:41:08.804Z,5.90
2023-03-17T03:43:36.194Z,4.50
2023-03-17T03:46:03.831Z,4.13
2023-03-17T03:48:30.834Z,5.32
2023-03-17T03:50:59.430Z,5.40
2023-03-17T03:53:26.654Z,4.60
2023-03-17T03:55:54.469Z,4.97
2023-03-17T03:58:22.172Z,7.15
2023-03-17T04:00:49.117Z,4.50
2023-03-17T04:03:16.522Z,3.60
2023-03-17T04:05:43.413Z,4.23
2023-03-17T04:08:11.322Z,5.32
2023-03-17T04:10:38.281Z,5.63
2023-03-17T04:13:05.065Z,5.50
2023-03-17T04:15:31.801Z,4.35
2023-03-17T04:17:58.504Z,4.23
2023-03-17T04:20:25.440Z,4.85
2023-03-17T04:22:52.374Z,5.43
2023-03-17T04:25:19.346Z,6.00
2023-03-17T04:27:46.048Z,5.78
2023-03-17T04:30:14.453Z,11.70
2023-03-17T04:32:41.726Z,7.45
2023-03-17T04:35:17.936Z,6.85
2023-03-17T04:37:44.963Z,4.35
2023-03-17T04:40:13.280Z,4.45
2023-03-17T04:42:46.795Z,5.60
2023-03-17T04:45:17.218Z,4.03
2023-03-17T04:47:46.221Z,4.80
2023-03-17T04:50:14.269Z,6.25
2023-03-17T04:52:41.156Z,5.72
2023-03-17T04:55:08.482Z,7.50
2023-03-17T04:57:36.640Z,6.88
2023-03-17T05:00:05.514Z,5.15
2023-03-17T05:02:32.415Z,4.50
2023-03-17T05:04:59.191Z,6.30
2023-03-17T05:07:25.936Z,4.00
2023-03-17T05:09:52.662Z,8.05
2023-03-17T05:12:19.452Z,3.95
2023-03-17T05:14:46.567Z,5.13
2023-03-17T05:17:13.775Z,5.03
2023-03-17T05:19:40.736Z,6.17
2023-03-17T05:22:07.533Z,4.25
2023-03-17T05:24:34.324Z,4.60
2023-03-17T05:27:01.093Z,4.32
2023-03-17T05:29:27.930Z,4.47
2023-03-17T05:31:54.663Z,4.97
2023-03-17T05:34:21.482Z,4.38
2023-03-17T05:36:48.744Z,6.28
2023-03-17T05:39:15.443Z,4.05
2023-03-17T05:41:42.307Z,4.45
2023-03-17T05:44:09.215Z,9.47
2023-03-17T05:46:36.315Z,9.02
2023-03-17T05:49:03.634Z,6.00
2023-03-17T05:51:30.409Z,4.05
2023-03-17T05:53:57.547Z,4.70
2023-03-17T05:56:26.256Z,7.60
2023-03-17T05:58:52.945Z,3.47
2023-03-17T06:01:19.777Z,4.55
2023-03-17T06:03:46.730Z,4.38
2023-03-17T06:06:13.416Z,9.13
2023-03-17T06:08:40.468Z,7.07
2023-03-17T06:11:07.256Z,6.35
2023-03-17T06:13:34.060Z,5.20
2023-03-17T06:16:00.840Z,4.50
2023-03-17T06:18:27.617Z,7.20
2023-03-17T06:20:54.588Z,5.00
2023-03-17T06:23:23.561Z,5.53
2023-03-17T06:25:50.740Z,6.43
2023-03-17T06:28:18.348Z,5.25
2023-03-17T06:30:45.642Z,4.80
2023-03-17T06:33:13.101Z,4.57
2023-03-17T06:35:39.958Z,4.97
2023-03-17T06:38:07.259Z,8.00
2023-03-17T06:40:34.132Z,5.72
2023-03-17T06:43:01.918Z,8.85
2023-03-17T06:45:29.164Z,4.67
2023-03-17T06:47:56.199Z,5.53
2023-03-17T06:50:23.032Z,4.78
2023-03-17T06:52:49.871Z,5.95
2023-03-17T06:55:17.427Z,5.38
2023-03-17T06:57:44.391Z,4.47
2023-03-17T07:00:14.095Z,6.20
2023-03-17T07:02:41.194Z,4.45
2023-03-17T07:05:08.280Z,6.30
2023-03-17T07:07:38.802Z,4.32
2023-03-17T07:10:06.307Z,7.63
2023-03-17T07:12:33.168Z,7.50
2023-03-17T07:15:00.084Z,5.70
2023-03-17T07:17:27.069Z,9.73
2023-03-17T07:19:53.772Z,6.32
2023-03-17T07:22:20.922Z,5.67
2023-03-17T07:24:49.154Z,6.10
2023-03-17T07:27:16.905Z,4.82
2023-03-17T07:29:43.799Z,6.22
2023-03-17T07:32:11.246Z,6.03
2023-03-17T07:34:38.056Z,5.30
2023-03-17T07:37:06.956Z,6.65
2023-03-17T07:39:33.936Z,7.22
2023-03-17T07:42:00.646Z,7.10
2023-03-17T07:44:27.790Z,6.45
2023-03-17T07:46:55.227Z,5.80
2023-03-17T07:49:38.203Z,5.30
2023-03-17T07:52:08.326Z,5.15
2023-03-17T07:54:36.259Z,6.80
2023-03-17T07:57:04.130Z,7.78
2023-03-17T07:59:31.597Z,10.70
2023-03-17T08:02:00.192Z,5.15
2023-03-17T08:04:27.653Z,8.80
2023-03-17T08:06:54.589Z,5.05
2023-03-17T08:09:24.686Z,7.15
2023-03-17T08:11:51.576Z,6.70
2023-03-17T08:14:18.725Z,5.70
2023-03-17T08:16:45.616Z,5.63
2023-03-17T08:19:12.460Z,7.60
2023-03-17T08:21:39.259Z,8.48
2023-03-17T08:24:06.551Z,6.10
2023-03-17T08:26:34.102Z,4.38
2023-03-17T08:29:01.415Z,5.70
2023-03-17T08:31:28.442Z,5.65
2023-03-17T08:33:57.039Z,6.00
2023-03-17T08:36:24.148Z,4.50
2023-03-17T08:38:51.063Z,6.57
2023-03-17T08:41:21.745Z,7.22
2023-03-17T08:43:48.766Z,6.88
2023-03-17T08:46:23.271Z,6.35
2023-03-17T08:48:51.511Z,4.10
2023-03-17T08:51:22.841Z,5.72
2023-03-17T08:53:51.766Z,4.70
2023-03-17T08:56:18.486Z,6.32
2023-03-17T08:58:45.839Z,8.00
2023-03-17T09:01:12.798Z,8.73
2023-03-17T09:03:40.787Z,5.00
2023-03-17T09:06:11.521Z,9.55
2023-03-17T09:08:41.189Z,6.70
2023-03-17T09:11:09.700Z,7.50
2023-03-17T09:13:39.040Z,7.67
2023-03-17T09:16:08.810Z,6.75
2023-03-17T09:18:35.782Z,7.00
2023-03-17T09:21:03.657Z,6.85
2023-03-17T09:23:30.977Z,14.18
2023-03-17T09:25:57.857Z,6.20
2023-03-17T09:28:24.852Z,5.93
2023-03-17T09:30:52.792Z,8.18
2023-03-17T09:33:19.680Z,6.68
2023-03-17T09:35:46.669Z,7.88
2023-03-17T09:38:13.730Z,5.17
2023-03-17T09:40:45.908Z,5.82
2023-03-17T09:43:34.878Z,7.60
2023-03-17T09:46:15.260Z,7.97
2023-03-17T09:48:53.519Z,6.88
2023-03-17T09:51:20.459Z,9.03
2023-03-17T09:54:02.355Z,10.18
2023-03-17T09:56:32.513Z,6.65
2023-03-17T09:59:07.142Z,9.45
2023-03-17T10:01:34.362Z,9.93
2023-03-17T10:04:02.581Z,9.50
2023-03-17T10:06:49.583Z,6.63
2023-03-17T10:09:35.328Z,6.82
2023-03-17T10:12:29.785Z,8.82
2023-03-17T10:15:00.969Z,7.53
2023-03-17T10:17:40.433Z,7.37
2023-03-17T10:20:14.463Z,8.73
2023-03-17T10:22:48.309Z,7.70
2023-03-17T10:25:18.930Z,9.40
2023-03-17T10:27:54.756Z,11.15
2023-03-17T10:30:23.459Z,9.10
2023-03-17T10:32:51.835Z,10.02
2023-03-17T10:35:19.172Z,7.75
2023-03-17T10:37:49.091Z,12.85
2023-03-17T10:40:28.519Z,7.53
2023-03-17T10:43:02.397Z,5.33
2023-03-17T10:45:32.397Z,10.82
2023-03-17T10:48:01.212Z,8.23
2023-03-17T10:50:32.542Z,6.68
2023-03-17T10:53:03.896Z,6.93
2023-03-17T10:55:39.535Z,7.13
2023-03-17T10:58:21.775Z,8.40
2023-03-17T11:01:05.659Z,10.75
2023-03-17T11:03:38.743Z,8.98
2023-03-17T11:06:12.009Z,9.07
2023-03-17T11:09:04.776Z,5.23
2023-03-17T11:11:34.778Z,11.30
2023-03-17T11:14:06.800Z,8.80
2023-03-17T11:16:38.210Z,7.50
2023-03-17T11:19:14.136Z,7.10
2023-03-17T11:22:04.887Z,6.87
2023-03-17T11:24:36.349Z,7.47
2023-03-17T11:27:13.032Z,7.43
2023-03-17T11:29:54.354Z,8.07
2023-03-17T11:32:37.128Z,8.57
2023-03-17T11:35:23.138Z,8.23
2023-03-17T11:38:21.058Z,6.70
2023-03-17T11:40:54.087Z,9.82
2023-03-17T11:43:33.570Z,6.65
2023-03-17T11:46:40.102Z,9.32
2023-03-17T11:49:24.138Z,11.90
2023-03-17T11:52:21.950Z,9.55
2023-03-17T11:55:04.418Z,8.05
2023-03-17T11:57:41.080Z,7.60
2023-03-17T12:00:16.611Z,9.57
2023-03-17T12:02:56.345Z,7.63
2023-03-17T12:05:28.674Z,7.55
2023-03-17T12:08:04.443Z,8.85
2023-03-17T12:10:40.586Z,7.50
2023-03-17T12:13:23.560Z,6.20
2023-03-17T12:16:00.148Z,9.60
2023-03-17T12:18:32.677Z,8.13
2023-03-17T12:21:45.580Z,7.80
2023-03-17T12:24:23.868Z,6.57
2023-03-17T12:27:05.883Z,9.10
2023-03-17T12:29:43.112Z,9.17
2023-03-17T12:32:35.693Z,6.65
2023-03-17T12:35:26.147Z,9.40
2023-03-17T12:37:54.196Z,10.60
2023-03-17T12:40:33.692Z,8.82
2023-03-17T12:43:36.348Z,9.23
2023-03-17T12:46:29.121Z,8.38
2023-03-17T12:49:11.706Z,7.82
2023-03-17T12:51:49.980Z,7.28
2023-03-17T12:54:35.800Z,9.45
2023-03-17T12:57:05.061Z,9.47
2023-03-17T12:59:33.947Z,9.13
2023-03-17T13:02:23.156Z,8.48
2023-03-17T13:05:00.937Z,8.50
2023-03-17T13:07:38.431Z,8.18
2023-03-17T13:10:19.151Z,8.23
2023-03-17T13:12:48.743Z,8.65
2023-03-17T13:15:33.978Z,9.20
2023-03-17T13:18:15.503Z,9.68
2023-03-17T13:20:56.459Z,7.30
2023-03-17T13:23:57.799Z,9.07
2023-03-17T13:26:54.918Z,11.02
2023-03-17T13:29:26.837Z,9.65
2023-03-17T13:32:13.535Z,9.52
2023-03-17T13:34:50.076Z,11.30
2023-03-17T13:37:25.519Z,11.97
2023-03-17T13:40:10.685Z,8.18
2023-03-17T13:42:46.714Z,13.07
2023-03-17T13:45:39.438Z,8.80
2023-03-17T13:48:29.628Z,7.53
2023-03-17T13:51:13.915Z,7.73
2023-03-17T13:54:09.295Z,8.45
2023-03-17T13:56:41.949Z,6.32
2023-03-17T13:59:20.171Z,8.52
2023-03-17T14:01:59.817Z,10.70
2023-03-17T14:04:30.752Z,10.47
2023-03-17T14:07:05.309Z,7.57
2023-03-17T14:09:38.715Z,9.13
2023-03-17T14:12:45.007Z,14.40
2023-03-17T14:15:49.507Z,9.57
2023-03-17T14:18:19.017Z,9.30
2023-03-17T14:20:58.081Z,7.85
2023-03-17T14:23:25.884Z,9.40
2023-03-17T14:25:56.424Z,7.60
2023-03-17T14:28:27.264Z,10.02
2023-03-17T14:31:08.038Z,9.65
2023-03-17T14:33:41.713Z,8.17
2023-03-17T14:36:14.143Z,8.95
2023-03-17T14:38:51.582Z,10.10
2023-03-17T14:41:19.876Z,8.25
2023-03-17T14:43:47.306Z,9.80
2023-03-17T14:46:26.405Z,8.90
2023-03-17T14:49:21.238Z,7.15
2023-03-17T14:51:53.312Z,7.68
2023-03-17T14:54:24.641Z,7.47
2023-03-17T14:57:01.918Z,9.35
2023-03-17T14:59:37.542Z,9.57
2023-03-17T15:02:17.632Z,11.10
2023-03-17T15:04:54.247Z,11.25
2023-03-17T15:07:32.203Z,13.07
2023-03-17T15:10:03.040Z,12.73
2023-03-17T15:12:31.106Z,8.53
2023-03-17T15:15:03.544Z,9.73
2023-03-17T15:17:36.660Z,13.18
2023-03-17T15:20:16.219Z,10.50
2023-03-17T15:23:00.877Z,9.68
2023-03-17T15:25:38.224Z,8.03
2023-03-17T15:28:26.502Z,9.60
2023-03-17T15:30:56.651Z,10.07
2023-03-17T15:33:29.570Z,9.38
2023-03-17T15:35:56.891Z,7.63
2023-03-17T15:38:23.834Z,8.40
2023-03-17T15:40:50.583Z,9.35
2023-03-17T15:43:18.762Z,9.48
2023-03-17T15:45:46.376Z,9.18
2023-03-17T15:48:23.940Z,9.10
2023-03-17T15:50:51.575Z,10.53
2023-03-17T15:53:18.932Z,6.63
2023-03-17T15:55:46.093Z,7.85
2023-03-17T15:58:13.055Z,13.90
2023-03-17T16:00:40.853Z,10.65
2023-03-17T16:03:25.534Z,9.20
2023-03-17T16:05:52.291Z,8.63
2023-03-17T16:08:19.444Z,9.18
2023-03-17T16:10:46.912Z,6.43
2023-03-17T16:13:13.801Z,7.90
2023-03-17T16:18:38.146Z,9.05
2023-03-17T16:21:05.345Z,9.52
2023-03-17T16:23:35.386Z,9.48
2023-03-17T16:26:14.236Z,10.88
2023-03-17T16:28:44.431Z,10.20
2023-03-17T16:31:37.524Z,8.77
2023-03-17T16:34:18.433Z,12.73
2023-03-17T16:36:45.253Z,12.75
2023-03-17T16:39:20.096Z,10.43
2023-03-17T16:41:48.288Z,13.67
2023-03-17T16:44:20.384Z,7.30
2023-03-17T16:46:47.768Z,12.25
2023-03-17T16:49:20.758Z,9.80
2023-03-17T16:51:49.426Z,12.32
2023-03-17T16:54:17.157Z,11.13
2023-03-17T16:56:44.410Z,10.77
2023-03-17T16:59:18.739Z,10.05
2023-03-17T17:01:45.600Z,11.00
2023-03-17T17:04:12.342Z,13.27
2023-03-17T17:06:39.121Z,12.27
2023-03-17T17:09:06.031Z,11.90
2023-03-17T17:11:32.677Z,11.88
2023-03-17T17:13:59.916Z,11.23
2023-03-17T17:16:35.329Z,8.25
2023-03-17T17:19:03.891Z,11.20
2023-03-17T17:21:31.968Z,12.68
2023-03-17T17:23:58.738Z,10.73
2023-03-17T17:26:25.580Z,10.93
2023-03-17T17:28:52.537Z,12.75
2023-03-17T17:31:19.495Z,15.70
2023-03-17T17:33:46.282Z,10.50
2023-03-17T17:36:15.705Z,14.02
2023-03-17T17:38:43.621Z,13.38
2023-03-17T17:41:11.610Z,13.70
2023-03-17T17:43:38.412Z,13.43
2023-03-17T17:46:11.701Z,17.92
2023-03-17T17:48:38.422Z,18.88
2023-03-17T17:51:05.386Z,20.13
2023-03-17T17:53:32.107Z,14.93
2023-03-17T17:55:58.894Z,15.77
2023-03-17T17:58:26.580Z,16.17
2023-03-17T18:00:55.283Z,18.15
2023-03-17T18:03:25.034Z,15.05
2023-03-17T18:05:53.946Z,11.60
2023-03-17T18:08:21.011Z,13.80
2023-03-17T18:10:49.229Z,12.23
2023-03-17T18:13:17.510Z,12.98
2023-03-17T18:15:44.395Z,12.05
2023-03-17T18:18:11.147Z,15.75
2023-03-17T18:20:38.632Z,12.73
2023-03-17T18:23:05.632Z,12.95
2023-03-17T18:25:32.279Z,14.52
2023-03-17T18:28:01.205Z,19.73
2023-03-17T18:30:31.486Z,12.45
2023-03-17T18:33:06.354Z,19.00
2023-03-17T18:35:33.205Z,12.38
2023-03-17T18:38:00.198Z,18.83
2023-03-17T18:40:27.409Z,12.48
2023-03-17T18:42:54.962Z,17.30
2023-03-17T18:45:21.722Z,16.57
2023-03-17T18:47:48.424Z,12.63
2023-03-17T18:50:16.553Z,12.77
2023-03-17T18:52:44.789Z,16.80
2023-03-17T18:55:12.768Z,16.90
2023-03-17T18:57:39.799Z,17.80
2023-03-17T19:00:08.584Z,16.08
2023-03-17T19:02:37.100Z,18.13
2023-03-17T19:05:04.963Z,17.85
2023-03-17T19:07:32.082Z,16.13
2023-03-17T19:09:59.443Z,17.50
2023-03-17T19:12:26.593Z,16.10
2023-03-17T19:14:53.372Z,15.73
2023-03-17T19:17:20.142Z,14.85
2023-03-17T19:19:46.861Z,15.30
2023-03-17T19:22:13.995Z,16.33
2023-03-17T19:24:41.115Z,21.23
2023-03-17T19:27:08.073Z,13.27
2023-03-17T19:29:34.821Z,13.40
2023-03-17T19:32:02.295Z,17.17
2023-03-17T19:34:29.164Z,17.13
2023-03-17T19:36:55.999Z,16.33
2023-03-17T19:39:22.869Z,15.73
2023-03-17T19:41:53.130Z,13.05
2023-03-17T19:44:19.824Z,15.13
2023-03-17T19:46:46.550Z,14.60
2023-03-17T19:49:13.407Z,19.10
2023-03-17T19:51:41.777Z,12.77
2023-03-17T19:54:09.832Z,16.70
2023-03-17T19:56:38.362Z,10.63
2023-03-17T19:59:06.576Z,11.30
2023-03-17T20:01:33.489Z,12.45
2023-03-17T20:04:00.402Z,11.55
2023-03-17T20:06:27.234Z,9.30
2023-03-17T20:08:54.121Z,12.55
2023-03-17T20:11:20.979Z,12.67
2023-03-17T20:13:47.712Z,9.85
2023-03-17T20:16:14.463Z,10.95
2023-03-17T20:18:41.223Z,7.55
2023-03-17T20:21:12.671Z,11.30
2023-03-17T20:23:39.480Z,11.60
2023-03-17T20:26:07.317Z,10.68
2023-03-17T20:28:34.518Z,11.02
2023-03-17T20:31:04.346Z,12.57
2023-03-17T20:33:34.228Z,10.48
2023-03-17T20:36:03.070Z,9.53
2023-03-17T20:38:33.085Z,15.45
2023-03-17T20:41:14.476Z,9.82
2023-03-17T20:43:41.778Z,9.65
2023-03-17T20:46:13.615Z,12.75
2023-03-17T20:48:40.801Z,11.13
2023-03-17T20:51:09.924Z,11.68
2023-03-17T20:53:36.685Z,9.48
2023-03-17T20:56:04.704Z,15.00
2023-03-17T20:58:31.391Z,13.30
2023-03-17T21:00:58.399Z,10.80
2023-03-17T21:03:25.305Z,11.13
2023-03-17T21:05:53.406Z,10.82
2023-03-17T21:08:20.074Z,10.82
2023-03-17T21:10:46.841Z,13.98
2023-03-17T21:13:13.637Z,12.00
2023-03-17T21:15:41.053Z,14.43
2023-03-17T21:18:07.994Z,14.65
2023-03-17T21:20:34.718Z,10.07
2023-03-17T21:23:04.407Z,13.40
2023-03-17T21:25:31.188Z,12.33
2023-03-17T21:27:58.061Z,12.73
2023-03-17T21:30:24.870Z,14.40
2023-03-17T21:32:51.702Z,14.85
2023-03-17T21:35:18.540Z,10.48
2023-03-17T21:37:45.298Z,9.43
2023-03-17T21:40:13.666Z,10.88
2023-03-17T21:42:40.715Z,9.68
2023-03-17T21:45:07.619Z,12.70
2023-03-17T21:47:36.249Z,10.07
2023-03-17T21:50:05.112Z,12.50
2023-03-17T21:52:32.067Z,13.93
2023-03-17T21:54:59.527Z,11.80
2023-03-17T21:57:27.669Z,9.52
2023-03-17T21:59:54.509Z,12.73
2023-03-17T22:02:21.353Z,12.27
2023-03-17T22:04:48.671Z,12.27
2023-03-17T22:07:18.899Z,11.10
2023-03-17T22:09:45.647Z,14.10
2023-03-17T22:12:12.472Z,9.70
2023-03-17T22:14:39.226Z,12.20
2023-03-17T22:17:05.946Z,11.15
2023-03-17T22:19:32.819Z,10.65
2023-03-17T22:21:59.651Z,10.82
2023-03-17T22:24:26.533Z,9.75
2023-03-17T22:26:53.366Z,12.10
2023-03-17T22:29:20.054Z,11.85
2023-03-17T22:31:47.114Z,9.68
2023-03-17T22:34:14.102Z,11.82
2023-03-17T22:36:41.501Z,13.63
2023-03-17T22:39:11.767Z,11.83
2023-03-17T22:41:39.101Z,15.07
2023-03-17T22:44:08.347Z,11.93
2023-03-17T22:46:36.824Z,10.88
2023-03-17T22:49:04.730Z,11.73
2023-03-17T22:51:31.636Z,9.73
2023-03-17T22:53:58.336Z,10.52
2023-03-17T22:56:26.090Z,14.68
2023-03-17T22:58:54.100Z,9.20
2023-03-17T23:01:23.851Z,14.55
2023-03-17T23:03:50.798Z,14.10
2023-03-17T23:06:19.394Z,15.35
2023-03-17T23:08:46.693Z,10.70
2023-03-17T23:11:23.104Z,15.20
2023-03-17T23:13:51.280Z,10.20
2023-03-17T23:16:18.794Z,13.50
2023-03-17T23:18:46.962Z,10.40
2023-03-17T23:21:31.712Z,12.90
2023-03-17T23:23:59.598Z,12.35
2023-03-17T23:26:26.805Z,14.48
2023-03-17T23:28:53.697Z,9.57
2023-03-17T23:31:22.230Z,15.18
2023-03-17T23:33:50.433Z,16.05
2023-03-17T23:36:18.077Z,10.77
2023-03-17T23:38:45.830Z,11.98
2023-03-17T23:41:13.386Z,10.77
2023-03-17T23:43:40.270Z,11.85
2023-03-17T23:46:07.020Z,13.88
2023-03-17T23:48:33.859Z,20.02
2023-03-17T23:51:00.998Z,11.55
2023-03-17T23:53:28.447Z,14.83
2023-03-17T23:55:55.213Z,14.25
2023-03-17T23:58:22.826Z,14.60
